sensor_id;sensor_type;location;lat;lon;timestamp;P1;durP1;ratioP1;P2;durP2;ratioP2
286;SDS011;127;48.770;9.212;2024-03-08T00:01:59;98.75;;;32.05;;
286;SDS011;127;48.770;9.212;2024-03-08T00:04:31;92.63;;;32.00;;
286;SDS011;127;48.770;9.212;2024-03-08T00:07:00;85.22;;;29.05;;
286;SDS011;127;48.770;9.212;2024-03-08T00:09:29;97.13;;;32.50;;
286;SDS011;127;48.770;9.212;2024-03-08T00:11:58;88.28;;;28.77;;
286;SDS011;127;48.770;9.212;2024-03-08T00:14:27;103.53;;;32.00;;
286;SDS011;127;48.770;9.212;2024-03-08T00:16:56;95.40;;;34.40;;
286;SDS011;127;48.770;9.212;2024-03-08T00:19:25;88.10;;;30.33;;
286;SDS011;127;48.770;9.212;2024-03-08T00:21:56;95.32;;;31.48;;
286;SDS011;127;48.770;9.212;2024-03-08T00:24:25;97.45;;;32.05;;
286;SDS011;127;48.770;9.212;2024-03-08T00:26:56;96.40;;;30.58;;
286;SDS011;127;48.770;9.212;2024-03-08T00:29:24;107.15;;;32.13;;
286;SDS011;127;48.770;9.212;2024-03-08T00:31:53;100.03;;;31.45;;
286;SDS011;127;48.770;9.212;2024-03-08T00:34:23;95.90;;;32.05;;
286;SDS011;127;48.770;9.212;2024-03-08T00:36:51;89.25;;;30.95;;
286;SDS011;127;48.770;9.212;2024-03-08T00:39:23;91.32;;;32.55;;
286;SDS011;127;48.770;9.212;2024-03-08T00:41:52;101.80;;;32.47;;
286;SDS011;127;48.770;9.212;2024-03-08T00:44:21;93.28;;;31.10;;
286;SDS011;127;48.770;9.212;2024-03-08T00:46:50;102.97;;;34.00;;
286;SDS011;127;48.770;9.212;2024-03-08T00:49:18;89.97;;;30.48;;
286;SDS011;127;48.770;9.212;2024-03-08T00:51:48;98.53;;;31.83;;
286;SDS011;127;48.770;9.212;2024-03-08T00:54:16;98.32;;;33.17;;
286;SDS011;127;48.770;9.212;2024-03-08T00:56:48;123.50;;;33.40;;
286;SDS011;127;48.770;9.212;2024-03-08T00:59:17;111.03;;;33.90;;
286;SDS011;127;48.770;9.212;2024-03-08T01:01:46;102.78;;;32.75;;
286;SDS011;127;48.770;9.212;2024-03-08T01:04:14;110.65;;;32.72;;
286;SDS011;127;48.770;9.212;2024-03-08T01:06:44;112.38;;;34.88;;
286;SDS011;127;48.770;9.212;2024-03-08T01:09:12;102.95;;;32.83;;
286;SDS011;127;48.770;9.212;2024-03-08T01:11:42;107.68;;;31.52;;
286;SDS011;127;48.770;9.212;2024-03-08T01:14:14;90.82;;;31.73;;
286;SDS011;127;48.770;9.212;2024-03-08T01:16:42;102.03;;;32.17;;
286;SDS011;127;48.770;9.212;2024-03-08T01:19:11;103.18;;;32.53;;
286;SDS011;127;48.770;9.212;2024-03-08T01:21:40;105.10;;;32.47;;
286;SDS011;127;48.770;9.212;2024-03-08T01:24:09;96.30;;;32.33;;
286;SDS011;127;48.770;9.212;2024-03-08T01:26:38;89.13;;;28.73;;
286;SDS011;127;48.770;9.212;2024-03-08T01:29:07;94.00;;;31.63;;
286;SDS011;127;48.770;9.212;2024-03-08T01:31:38;85.13;;;30.98;;
286;SDS011;127;48.770;9.212;2024-03-08T01:34:07;91.00;;;29.50;;
286;SDS011;127;48.770;9.212;2024-03-08T01:36:36;101.68;;;32.53;;
286;SDS011;127;48.770;9.212;2024-03-08T01:39:05;101.82;;;33.03;;
286;SDS011;127;48.770;9.212;2024-03-08T01:41:34;108.28;;;33.45;;
286;SDS011;127;48.770;9.212;2024-03-08T01:44:03;112.63;;;30.95;;
286;SDS011;127;48.770;9.212;2024-03-08T01:46:32;123.20;;;34.80;;
286;SDS011;127;48.770;9.212;2024-03-08T01:49:04;100.00;;;33.38;;
286;SDS011;127;48.770;9.212;2024-03-08T01:51:33;102.45;;;31.00;;
286;SDS011;127;48.770;9.212;2024-03-08T01:54:02;102.93;;;33.17;;
286;SDS011;127;48.770;9.212;2024-03-08T01:56:31;105.90;;;30.48;;
286;SDS011;127;48.770;9.212;2024-03-08T01:59:00;107.32;;;33.45;;
286;SDS011;127;48.770;9.212;2024-03-08T02:01:29;116.00;;;33.78;;
286;SDS011;127;48.770;9.212;2024-03-08T02:03:58;110.65;;;30.55;;
286;SDS011;127;48.770;9.212;2024-03-08T02:06:30;113.18;;;32.08;;
286;SDS011;127;48.770;9.212;2024-03-08T02:08:59;114.32;;;36.22;;
286;SDS011;127;48.770;9.212;2024-03-08T02:11:30;102.07;;;31.67;;
286;SDS011;127;48.770;9.212;2024-03-08T02:13:59;104.90;;;31.83;;
286;SDS011;127;48.770;9.212;2024-03-08T02:16:29;90.95;;;28.58;;
286;SDS011;127;48.770;9.212;2024-03-08T02:18:58;105.65;;;31.00;;
286;SDS011;127;48.770;9.212;2024-03-08T02:21:29;93.45;;;30.20;;
286;SDS011;127;48.770;9.212;2024-03-08T02:23:59;90.82;;;29.42;;
286;SDS011;127;48.770;9.212;2024-03-08T02:26:28;84.97;;;27.75;;
286;SDS011;127;48.770;9.212;2024-03-08T02:28:56;81.57;;;28.42;;
286;SDS011;127;48.770;9.212;2024-03-08T02:31:25;85.30;;;27.95;;
286;SDS011;127;48.770;9.212;2024-03-08T02:33:54;88.07;;;28.70;;
286;SDS011;127;48.770;9.212;2024-03-08T02:36:24;85.75;;;28.67;;
286;SDS011;127;48.770;9.212;2024-03-08T02:38:55;99.20;;;29.98;;
286;SDS011;127;48.770;9.212;2024-03-08T02:41:24;80.82;;;26.45;;
286;SDS011;127;48.770;9.212;2024-03-08T02:43:53;86.82;;;28.30;;
286;SDS011;127;48.770;9.212;2024-03-08T02:46:23;83.75;;;28.70;;
286;SDS011;127;48.770;9.212;2024-03-08T02:48:52;94.65;;;27.65;;
286;SDS011;127;48.770;9.212;2024-03-08T02:51:21;85.32;;;27.42;;
286;SDS011;127;48.770;9.212;2024-03-08T02:53:51;96.60;;;30.67;;
286;SDS011;127;48.770;9.212;2024-03-08T02:56:22;104.85;;;29.63;;
286;SDS011;127;48.770;9.212;2024-03-08T02:58:51;84.90;;;28.15;;
286;SDS011;127;48.770;9.212;2024-03-08T03:01:20;85.15;;;28.27;;
286;SDS011;127;48.770;9.212;2024-03-08T03:03:49;81.50;;;27.90;;
286;SDS011;127;48.770;9.212;2024-03-08T03:06:18;85.50;;;26.58;;
286;SDS011;127;48.770;9.212;2024-03-08T03:08:47;81.55;;;27.42;;
286;SDS011;127;48.770;9.212;2024-03-08T03:11:16;74.97;;;25.50;;
286;SDS011;127;48.770;9.212;2024-03-08T03:13:47;72.85;;;25.95;;
286;SDS011;127;48.770;9.212;2024-03-08T03:16:17;86.90;;;29.45;;
286;SDS011;127;48.770;9.212;2024-03-08T03:18:47;88.43;;;28.63;;
286;SDS011;127;48.770;9.212;2024-03-08T03:21:16;86.70;;;27.10;;
286;SDS011;127;48.770;9.212;2024-03-08T03:23:44;81.78;;;28.13;;
286;SDS011;127;48.770;9.212;2024-03-08T03:26:13;75.50;;;27.15;;
286;SDS011;127;48.770;9.212;2024-03-08T03:28:43;106.50;;;29.77;;
286;SDS011;127;48.770;9.212;2024-03-08T03:31:16;81.65;;;26.88;;
286;SDS011;127;48.770;9.212;2024-03-08T03:33:44;84.00;;;26.65;;
286;SDS011;127;48.770;9.212;2024-03-08T03:36:13;97.22;;;29.50;;
286;SDS011;127;48.770;9.212;2024-03-08T03:38:43;83.45;;;27.38;;
286;SDS011;127;48.770;9.212;2024-03-08T03:41:11;77.25;;;30.10;;
286;SDS011;127;48.770;9.212;2024-03-08T03:43:40;91.28;;;29.90;;
286;SDS011;127;48.770;9.212;2024-03-08T03:46:09;98.22;;;29.75;;
286;SDS011;127;48.770;9.212;2024-03-08T03:48:40;94.32;;;26.52;;
286;SDS011;127;48.770;9.212;2024-03-08T03:51:10;74.88;;;26.60;;
286;SDS011;127;48.770;9.212;2024-03-08T03:53:40;88.43;;;28.77;;
286;SDS011;127;48.770;9.212;2024-03-08T03:56:09;88.68;;;29.95;;
286;SDS011;127;48.770;9.212;2024-03-08T03:58:38;85.15;;;28.17;;
286;SDS011;127;48.770;9.212;2024-03-08T04:01:07;99.05;;;30.30;;
286;SDS011;127;48.770;9.212;2024-03-08T04:03:37;79.40;;;27.77;;
286;SDS011;127;48.770;9.212;2024-03-08T04:06:13;91.78;;;28.20;;
286;SDS011;127;48.770;9.212;2024-03-08T04:08:42;94.45;;;28.15;;
286;SDS011;127;48.770;9.212;2024-03-08T04:11:11;101.53;;;30.35;;
286;SDS011;127;48.770;9.212;2024-03-08T04:13:41;82.35;;;30.60;;
286;SDS011;127;48.770;9.212;2024-03-08T04:16:10;103.53;;;31.90;;
286;SDS011;127;48.770;9.212;2024-03-08T04:18:39;117.45;;;32.45;;
286;SDS011;127;48.770;9.212;2024-03-08T04:21:08;87.53;;;28.50;;
286;SDS011;127;48.770;9.212;2024-03-08T04:23:39;92.03;;;31.90;;
286;SDS011;127;48.770;9.212;2024-03-08T04:26:10;89.53;;;28.48;;
286;SDS011;127;48.770;9.212;2024-03-08T04:28:39;92.43;;;30.27;;
286;SDS011;127;48.770;9.212;2024-03-08T04:31:08;98.45;;;30.33;;
286;SDS011;127;48.770;9.212;2024-03-08T04:33:36;101.32;;;31.30;;
286;SDS011;127;48.770;9.212;2024-03-08T04:36:06;87.97;;;28.70;;
286;SDS011;127;48.770;9.212;2024-03-08T04:38:41;89.55;;;28.20;;
286;SDS011;127;48.770;9.212;2024-03-08T04:41:11;105.97;;;33.70;;
286;SDS011;127;48.770;9.212;2024-03-08T04:43:39;97.25;;;32.22;;
286;SDS011;127;48.770;9.212;2024-03-08T04:46:08;112.40;;;33.90;;
286;SDS011;127;48.770;9.212;2024-03-08T04:48:37;115.60;;;32.60;;
286;SDS011;127;48.770;9.212;2024-03-08T04:51:07;90.45;;;30.80;;
286;SDS011;127;48.770;9.212;2024-03-08T04:53:36;107.68;;;31.98;;
286;SDS011;127;48.770;9.212;2024-03-08T04:56:07;100.55;;;31.40;;
286;SDS011;127;48.770;9.212;2024-03-08T04:58:36;102.22;;;30.55;;
286;SDS011;127;48.770;9.212;2024-03-08T05:01:05;112.10;;;33.15;;
286;SDS011;127;48.770;9.212;2024-03-08T05:03:35;114.78;;;34.03;;
286;SDS011;127;48.770;9.212;2024-03-08T05:06:04;109.40;;;32.55;;
286;SDS011;127;48.770;9.212;2024-03-08T05:08:33;118.78;;;33.75;;
286;SDS011;127;48.770;9.212;2024-03-08T05:11:02;116.05;;;35.42;;
286;SDS011;127;48.770;9.212;2024-03-08T05:13:35;119.05;;;33.95;;
286;SDS011;127;48.770;9.212;2024-03-08T05:16:04;103.53;;;34.50;;
286;SDS011;127;48.770;9.212;2024-03-08T05:18:33;120.53;;;34.28;;
286;SDS011;127;48.770;9.212;2024-03-08T05:21:02;103.40;;;33.78;;
286;SDS011;127;48.770;9.212;2024-03-08T05:23:31;125.32;;;33.45;;
286;SDS011;127;48.770;9.212;2024-03-08T05:25:59;120.47;;;32.08;;
286;SDS011;127;48.770;9.212;2024-03-08T05:28:28;104.28;;;33.40;;
286;SDS011;127;48.770;9.212;2024-03-08T05:31:00;118.15;;;33.17;;
286;SDS011;127;48.770;9.212;2024-03-08T05:33:29;115.90;;;33.97;;
286;SDS011;127;48.770;9.212;2024-03-08T05:35:59;110.80;;;33.97;;
286;SDS011;127;48.770;9.212;2024-03-08T05:38:28;105.93;;;36.60;;
286;SDS011;127;48.770;9.212;2024-03-08T05:40:57;121.95;;;33.55;;
286;SDS011;127;48.770;9.212;2024-03-08T05:43:26;135.65;;;35.80;;
286;SDS011;127;48.770;9.212;2024-03-08T05:45:55;112.95;;;34.88;;
286;SDS011;127;48.770;9.212;2024-03-08T05:48:26;132.50;;;36.53;;
286;SDS011;127;48.770;9.212;2024-03-08T05:50:57;131.65;;;38.15;;
286;SDS011;127;48.770;9.212;2024-03-08T05:53:27;104.25;;;33.17;;
286;SDS011;127;48.770;9.212;2024-03-08T05:55:56;119.57;;;36.50;;
286;SDS011;127;48.770;9.212;2024-03-08T05:58:27;122.95;;;35.08;;
286;SDS011;127;48.770;9.212;2024-03-08T06:00:57;128.30;;;36.38;;
286;SDS011;127;48.770;9.212;2024-03-08T06:03:28;122.07;;;35.88;;
286;SDS011;127;48.770;9.212;2024-03-08T06:05:57;120.57;;;34.45;;
286;SDS011;127;48.770;9.212;2024-03-08T06:08:27;121.47;;;33.63;;
286;SDS011;127;48.770;9.212;2024-03-08T06:10:57;121.53;;;35.92;;
286;SDS011;127;48.770;9.212;2024-03-08T06:13:27;137.80;;;36.20;;
286;SDS011;127;48.770;9.212;2024-03-08T06:15:56;127.70;;;33.92;;
286;SDS011;127;48.770;9.212;2024-03-08T06:18:25;104.47;;;35.03;;
286;SDS011;127;48.770;9.212;2024-03-08T06:20:56;129.70;;;35.20;;
286;SDS011;127;48.770;9.212;2024-03-08T06:23:25;140.63;;;40.67;;
286;SDS011;127;48.770;9.212;2024-03-08T06:25:54;123.57;;;38.08;;
286;SDS011;127;48.770;9.212;2024-03-08T06:28:23;129.45;;;36.17;;
286;SDS011;127;48.770;9.212;2024-03-08T06:30:52;132.18;;;35.80;;
286;SDS011;127;48.770;9.212;2024-03-08T06:33:21;123.55;;;35.88;;
286;SDS011;127;48.770;9.212;2024-03-08T06:35:51;125.22;;;36.92;;
286;SDS011;127;48.770;9.212;2024-03-08T06:38:24;138.60;;;37.35;;
286;SDS011;127;48.770;9.212;2024-03-08T06:40:53;127.63;;;34.95;;
286;SDS011;127;48.770;9.212;2024-03-08T06:43:22;124.63;;;35.70;;
286;SDS011;127;48.770;9.212;2024-03-08T06:45:58;119.40;;;38.15;;
286;SDS011;127;48.770;9.212;2024-03-08T06:48:29;141.93;;;40.10;;
286;SDS011;127;48.770;9.212;2024-03-08T06:50:57;146.68;;;39.35;;
286;SDS011;127;48.770;9.212;2024-03-08T06:53:29;121.32;;;35.35;;
286;SDS011;127;48.770;9.212;2024-03-08T06:56:00;116.40;;;36.60;;
286;SDS011;127;48.770;9.212;2024-03-08T06:58:28;129.93;;;39.65;;
286;SDS011;127;48.770;9.212;2024-03-08T07:00:57;131.60;;;38.20;;
286;SDS011;127;48.770;9.212;2024-03-08T07:03:29;114.10;;;38.00;;
286;SDS011;127;48.770;9.212;2024-03-08T07:05:58;134.13;;;38.70;;
286;SDS011;127;48.770;9.212;2024-03-08T07:08:30;115.50;;;39.38;;
286;SDS011;127;48.770;9.212;2024-03-08T07:10:59;125.53;;;40.65;;
286;SDS011;127;48.770;9.212;2024-03-08T07:13:28;115.88;;;37.08;;
286;SDS011;127;48.770;9.212;2024-03-08T07:15:57;107.75;;;36.13;;
286;SDS011;127;48.770;9.212;2024-03-08T07:18:27;107.45;;;35.25;;
286;SDS011;127;48.770;9.212;2024-03-08T07:20:56;113.88;;;36.95;;
286;SDS011;127;48.770;9.212;2024-03-08T07:23:29;111.38;;;37.03;;
286;SDS011;127;48.770;9.212;2024-03-08T07:26:11;101.90;;;37.33;;
286;SDS011;127;48.770;9.212;2024-03-08T07:28:40;91.07;;;34.25;;
286;SDS011;127;48.770;9.212;2024-03-08T07:31:08;90.10;;;31.75;;
286;SDS011;127;48.770;9.212;2024-03-08T07:33:46;87.95;;;32.97;;
286;SDS011;127;48.770;9.212;2024-03-08T07:36:15;78.53;;;30.83;;
286;SDS011;127;48.770;9.212;2024-03-08T07:38:47;89.40;;;31.88;;
286;SDS011;127;48.770;9.212;2024-03-08T07:41:16;86.70;;;31.05;;
286;SDS011;127;48.770;9.212;2024-03-08T07:43:45;90.13;;;31.63;;
286;SDS011;127;48.770;9.212;2024-03-08T07:46:14;69.03;;;28.38;;
286;SDS011;127;48.770;9.212;2024-03-08T07:48:43;79.18;;;29.90;;
286;SDS011;127;48.770;9.212;2024-03-08T07:51:15;83.68;;;31.30;;
286;SDS011;127;48.770;9.212;2024-03-08T07:53:51;77.10;;;28.38;;
286;SDS011;127;48.770;9.212;2024-03-08T07:56:20;68.57;;;28.13;;
286;SDS011;127;48.770;9.212;2024-03-08T07:58:50;67.93;;;28.25;;
286;SDS011;127;48.770;9.212;2024-03-08T08:01:19;69.90;;;26.15;;
286;SDS011;127;48.770;9.212;2024-03-08T08:03:48;63.78;;;26.00;;
286;SDS011;127;48.770;9.212;2024-03-08T08:06:17;67.38;;;25.00;;
286;SDS011;127;48.770;9.212;2024-03-08T08:08:46;74.63;;;25.92;;
286;SDS011;127;48.770;9.212;2024-03-08T08:11:17;69.00;;;26.80;;
286;SDS011;127;48.770;9.212;2024-03-08T08:13:46;55.25;;;24.63;;
286;SDS011;127;48.770;9.212;2024-03-08T08:16:15;48.40;;;22.60;;
286;SDS011;127;48.770;9.212;2024-03-08T08:18:44;54.55;;;23.13;;
286;SDS011;127;48.770;9.212;2024-03-08T08:21:13;53.10;;;23.83;;
286;SDS011;127;48.770;9.212;2024-03-08T08:23:43;49.72;;;22.25;;
286;SDS011;127;48.770;9.212;2024-03-08T08:26:12;46.15;;;21.23;;
286;SDS011;127;48.770;9.212;2024-03-08T08:28:44;45.28;;;20.30;;
286;SDS011;127;48.770;9.212;2024-03-08T08:31:14;49.13;;;20.95;;
286;SDS011;127;48.770;9.212;2024-03-08T08:33:44;49.65;;;23.05;;
286;SDS011;127;48.770;9.212;2024-03-08T08:36:13;42.70;;;20.30;;
286;SDS011;127;48.770;9.212;2024-03-08T08:38:43;43.33;;;19.93;;
286;SDS011;127;48.770;9.212;2024-03-08T08:41:12;41.78;;;19.35;;
286;SDS011;127;48.770;9.212;2024-03-08T08:43:45;44.15;;;20.48;;
286;SDS011;127;48.770;9.212;2024-03-08T08:46:16;41.97;;;19.48;;
286;SDS011;127;48.770;9.212;2024-03-08T08:48:46;43.78;;;20.35;;
286;SDS011;127;48.770;9.212;2024-03-08T08:51:16;45.45;;;19.63;;
286;SDS011;127;48.770;9.212;2024-03-08T08:53:44;34.45;;;17.77;;
286;SDS011;127;48.770;9.212;2024-03-08T08:56:13;41.75;;;20.02;;
286;SDS011;127;48.770;9.212;2024-03-08T08:58:46;44.78;;;19.73;;
286;SDS011;127;48.770;9.212;2024-03-08T09:01:15;41.22;;;18.83;;
286;SDS011;127;48.770;9.212;2024-03-08T09:03:44;48.35;;;20.77;;
286;SDS011;127;48.770;9.212;2024-03-08T09:06:13;41.05;;;18.77;;
286;SDS011;127;48.770;9.212;2024-03-08T09:08:42;35.83;;;18.40;;
286;SDS011;127;48.770;9.212;2024-03-08T09:11:11;42.67;;;19.40;;
286;SDS011;127;48.770;9.212;2024-03-08T09:13:40;34.00;;;16.95;;
286;SDS011;127;48.770;9.212;2024-03-08T09:16:11;40.00;;;18.80;;
286;SDS011;127;48.770;9.212;2024-03-08T09:18:41;40.42;;;18.83;;
286;SDS011;127;48.770;9.212;2024-03-08T09:21:10;35.40;;;18.08;;
286;SDS011;127;48.770;9.212;2024-03-08T09:23:39;43.65;;;18.30;;
286;SDS011;127;48.770;9.212;2024-03-08T09:26:10;46.10;;;19.27;;
286;SDS011;127;48.770;9.212;2024-03-08T09:28:40;38.00;;;18.50;;
286;SDS011;127;48.770;9.212;2024-03-08T09:31:13;44.70;;;17.85;;
286;SDS011;127;48.770;9.212;2024-03-08T09:33:42;43.50;;;19.35;;
286;SDS011;127;48.770;9.212;2024-03-08T09:36:10;43.45;;;19.80;;
286;SDS011;127;48.770;9.212;2024-03-08T09:38:39;40.38;;;19.23;;
286;SDS011;127;48.770;9.212;2024-03-08T09:41:09;37.28;;;17.05;;
286;SDS011;127;48.770;9.212;2024-03-08T09:43:38;41.67;;;18.40;;
286;SDS011;127;48.770;9.212;2024-03-08T09:46:07;43.38;;;18.17;;
286;SDS011;127;48.770;9.212;2024-03-08T09:48:38;40.08;;;18.13;;
286;SDS011;127;48.770;9.212;2024-03-08T09:51:08;43.57;;;19.20;;
286;SDS011;127;48.770;9.212;2024-03-08T09:53:40;33.87;;;17.00;;
286;SDS011;127;48.770;9.212;2024-03-08T09:56:09;36.30;;;17.23;;
286;SDS011;127;48.770;9.212;2024-03-08T09:58:39;38.03;;;18.67;;
286;SDS011;127;48.770;9.212;2024-03-08T10:01:39;33.50;;;16.43;;
286;SDS011;127;48.770;9.212;2024-03-08T10:04:12;36.03;;;16.80;;
286;SDS011;127;48.770;9.212;2024-03-08T10:06:42;34.30;;;17.20;;
286;SDS011;127;48.770;9.212;2024-03-08T10:09:12;37.17;;;16.70;;
286;SDS011;127;48.770;9.212;2024-03-08T10:11:41;33.33;;;16.10;;
286;SDS011;127;48.770;9.212;2024-03-08T10:14:10;29.37;;;15.30;;
286;SDS011;127;48.770;9.212;2024-03-08T10:16:39;39.93;;;17.27;;
286;SDS011;127;48.770;9.212;2024-03-08T10:19:11;33.10;;;16.93;;
286;SDS011;127;48.770;9.212;2024-03-08T10:21:47;34.27;;;16.07;;
286;SDS011;127;48.770;9.212;2024-03-08T10:24:18;34.23;;;16.30;;
286;SDS011;127;48.770;9.212;2024-03-08T10:26:48;37.17;;;17.00;;
286;SDS011;127;48.770;9.212;2024-03-08T10:29:19;32.27;;;16.47;;
286;SDS011;127;48.770;9.212;2024-03-08T10:31:48;35.20;;;17.17;;
286;SDS011;127;48.770;9.212;2024-03-08T10:34:20;31.80;;;16.07;;
286;SDS011;127;48.770;9.212;2024-03-08T10:36:49;31.10;;;15.17;;
286;SDS011;127;48.770;9.212;2024-03-08T10:39:21;30.83;;;15.30;;
286;SDS011;127;48.770;9.212;2024-03-08T10:41:52;35.90;;;15.77;;
286;SDS011;127;48.770;9.212;2024-03-08T10:44:26;30.40;;;15.57;;
286;SDS011;127;48.770;9.212;2024-03-08T10:47:00;31.70;;;15.90;;
286;SDS011;127;48.770;9.212;2024-03-08T10:49:36;31.87;;;14.93;;
286;SDS011;127;48.770;9.212;2024-03-08T10:52:06;32.73;;;15.47;;
286;SDS011;127;48.770;9.212;2024-03-08T10:54:36;27.60;;;15.57;;
286;SDS011;127;48.770;9.212;2024-03-08T10:57:06;31.10;;;15.27;;
286;SDS011;127;48.770;9.212;2024-03-08T10:59:36;37.20;;;17.00;;
286;SDS011;127;48.770;9.212;2024-03-08T11:02:05;32.00;;;15.77;;
286;SDS011;127;48.770;9.212;2024-03-08T11:04:39;29.43;;;15.20;;
286;SDS011;127;48.770;9.212;2024-03-08T11:07:14;36.67;;;16.97;;
286;SDS011;127;48.770;9.212;2024-03-08T11:09:45;36.30;;;17.63;;
286;SDS011;127;48.770;9.212;2024-03-08T11:12:19;33.27;;;15.30;;
286;SDS011;127;48.770;9.212;2024-03-08T11:14:50;30.43;;;14.97;;
286;SDS011;127;48.770;9.212;2024-03-08T11:20:07;32.00;;;15.60;;
286;SDS011;127;48.770;9.212;2024-03-08T11:22:40;32.93;;;15.70;;
286;SDS011;127;48.770;9.212;2024-03-08T11:25:13;33.07;;;16.50;;
286;SDS011;127;48.770;9.212;2024-03-08T11:33:36;28.23;;;14.73;;
286;SDS011;127;48.770;9.212;2024-03-08T11:36:12;32.60;;;16.23;;
286;SDS011;127;48.770;9.212;2024-03-08T11:38:41;31.40;;;16.20;;
286;SDS011;127;48.770;9.212;2024-03-08T11:41:13;28.50;;;15.13;;
286;SDS011;127;48.770;9.212;2024-03-08T11:43:43;26.93;;;14.97;;
286;SDS011;127;48.770;9.212;2024-03-08T11:46:12;25.00;;;14.47;;
286;SDS011;127;48.770;9.212;2024-03-08T11:48:41;28.70;;;14.10;;
286;SDS011;127;48.770;9.212;2024-03-08T11:51:13;29.27;;;15.73;;
286;SDS011;127;48.770;9.212;2024-03-08T11:53:44;31.80;;;14.93;;
286;SDS011;127;48.770;9.212;2024-03-08T11:56:13;26.07;;;15.27;;
286;SDS011;127;48.770;9.212;2024-03-08T11:58:52;31.00;;;17.43;;
286;SDS011;127;48.770;9.212;2024-03-08T12:01:22;28.73;;;14.67;;
286;SDS011;127;48.770;9.212;2024-03-08T12:03:52;28.97;;;16.83;;
286;SDS011;127;48.770;9.212;2024-03-08T12:06:26;32.03;;;15.90;;
286;SDS011;127;48.770;9.212;2024-03-08T12:08:55;28.63;;;15.73;;
286;SDS011;127;48.770;9.212;2024-03-08T12:11:24;30.83;;;16.10;;
286;SDS011;127;48.770;9.212;2024-03-08T12:13:53;27.40;;;15.03;;
286;SDS011;127;48.770;9.212;2024-03-08T12:16:23;29.37;;;14.67;;
286;SDS011;127;48.770;9.212;2024-03-08T12:18:52;29.00;;;15.80;;
286;SDS011;127;48.770;9.212;2024-03-08T12:21:21;31.77;;;18.03;;
286;SDS011;127;48.770;9.212;2024-03-08T12:24:04;31.80;;;16.87;;
286;SDS011;127;48.770;9.212;2024-03-08T12:26:34;29.57;;;16.13;;
286;SDS011;127;48.770;9.212;2024-03-08T12:31:51;29.53;;;16.73;;
286;SDS011;127;48.770;9.212;2024-03-08T12:34:20;31.30;;;16.70;;
286;SDS011;127;48.770;9.212;2024-03-08T12:36:50;38.80;;;17.90;;
286;SDS011;127;48.770;9.212;2024-03-08T12:39:22;34.17;;;17.90;;
286;SDS011;127;48.770;9.212;2024-03-08T12:41:51;30.50;;;16.97;;
286;SDS011;127;48.770;9.212;2024-03-08T12:44:22;31.53;;;16.97;;
286;SDS011;127;48.770;9.212;2024-03-08T12:46:51;30.07;;;16.23;;
286;SDS011;127;48.770;9.212;2024-03-08T12:49:20;35.27;;;17.53;;
286;SDS011;127;48.770;9.212;2024-03-08T12:51:50;31.50;;;17.30;;
286;SDS011;127;48.770;9.212;2024-03-08T12:54:23;32.87;;;17.97;;
286;SDS011;127;48.770;9.212;2024-03-08T12:56:52;32.10;;;16.87;;
286;SDS011;127;48.770;9.212;2024-03-08T12:59:21;31.53;;;17.13;;
286;SDS011;127;48.770;9.212;2024-03-08T13:01:51;31.87;;;18.00;;
286;SDS011;127;48.770;9.212;2024-03-08T13:04:23;36.73;;;18.60;;
286;SDS011;127;48.770;9.212;2024-03-08T13:06:52;37.40;;;17.80;;
286;SDS011;127;48.770;9.212;2024-03-08T13:09:24;34.17;;;16.20;;
286;SDS011;127;48.770;9.212;2024-03-08T13:11:53;35.67;;;18.70;;
286;SDS011;127;48.770;9.212;2024-03-08T13:14:23;33.13;;;17.80;;
286;SDS011;127;48.770;9.212;2024-03-08T13:16:53;33.33;;;17.57;;
286;SDS011;127;48.770;9.212;2024-03-08T13:19:22;34.47;;;17.23;;
286;SDS011;127;48.770;9.212;2024-03-08T13:21:53;32.97;;;16.73;;
286;SDS011;127;48.770;9.212;2024-03-08T13:24:24;33.40;;;16.50;;
286;SDS011;127;48.770;9.212;2024-03-08T13:26:54;34.10;;;17.30;;
286;SDS011;127;48.770;9.212;2024-03-08T13:29:23;35.60;;;19.03;;
286;SDS011;127;48.770;9.212;2024-03-08T13:31:52;31.27;;;17.07;;
286;SDS011;127;48.770;9.212;2024-03-08T13:34:25;36.30;;;19.40;;
286;SDS011;127;48.770;9.212;2024-03-08T13:36:56;33.23;;;18.20;;
286;SDS011;127;48.770;9.212;2024-03-08T13:39:28;34.83;;;18.33;;
286;SDS011;127;48.770;9.212;2024-03-08T13:42:05;41.77;;;18.50;;
286;SDS011;127;48.770;9.212;2024-03-08T13:44:37;32.90;;;18.40;;
286;SDS011;127;48.770;9.212;2024-03-08T13:47:06;35.00;;;18.20;;
286;SDS011;127;48.770;9.212;2024-03-08T13:49:37;31.67;;;17.73;;
286;SDS011;127;48.770;9.212;2024-03-08T13:52:05;31.20;;;17.20;;
286;SDS011;127;48.770;9.212;2024-03-08T13:54:40;32.67;;;17.63;;
286;SDS011;127;48.770;9.212;2024-03-08T13:57:09;33.27;;;18.03;;
286;SDS011;127;48.770;9.212;2024-03-08T13:59:38;29.50;;;16.27;;
286;SDS011;127;48.770;9.212;2024-03-08T14:02:07;35.70;;;20.03;;
286;SDS011;127;48.770;9.212;2024-03-08T14:04:38;31.73;;;17.90;;
286;SDS011;127;48.770;9.212;2024-03-08T14:07:07;33.20;;;18.90;;
286;SDS011;127;48.770;9.212;2024-03-08T14:09:36;35.93;;;19.57;;
286;SDS011;127;48.770;9.212;2024-03-08T14:12:11;34.13;;;18.90;;
286;SDS011;127;48.770;9.212;2024-03-08T14:14:41;35.70;;;18.87;;
286;SDS011;127;48.770;9.212;2024-03-08T14:17:10;27.90;;;16.20;;
286;SDS011;127;48.770;9.212;2024-03-08T14:19:42;32.10;;;18.10;;
286;SDS011;127;48.770;9.212;2024-03-08T14:22:11;31.80;;;18.27;;
286;SDS011;127;48.770;9.212;2024-03-08T14:24:40;31.53;;;17.40;;
286;SDS011;127;48.770;9.212;2024-03-08T14:27:12;33.83;;;17.43;;
286;SDS011;127;48.770;9.212;2024-03-08T14:29:43;32.83;;;16.17;;
286;SDS011;127;48.770;9.212;2024-03-08T14:32:13;31.87;;;16.60;;
286;SDS011;127;48.770;9.212;2024-03-08T14:34:44;31.93;;;16.20;;
286;SDS011;127;48.770;9.212;2024-03-08T14:37:14;31.80;;;17.07;;
286;SDS011;127;48.770;9.212;2024-03-08T14:39:48;33.63;;;17.87;;
286;SDS011;127;48.770;9.212;2024-03-08T14:42:19;28.37;;;16.77;;
286;SDS011;127;48.770;9.212;2024-03-08T14:44:49;28.47;;;16.23;;
286;SDS011;127;48.770;9.212;2024-03-08T14:47:19;35.70;;;17.73;;
286;SDS011;127;48.770;9.212;2024-03-08T14:49:48;33.37;;;19.00;;
286;SDS011;127;48.770;9.212;2024-03-08T14:52:17;31.03;;;17.77;;
286;SDS011;127;48.770;9.212;2024-03-08T14:54:55;34.20;;;18.70;;
286;SDS011;127;48.770;9.212;2024-03-08T14:57:27;30.70;;;17.13;;
286;SDS011;127;48.770;9.212;2024-03-08T14:59:57;30.30;;;18.10;;
286;SDS011;127;48.770;9.212;2024-03-08T15:02:31;34.50;;;17.97;;
286;SDS011;127;48.770;9.212;2024-03-08T15:05:01;32.37;;;18.50;;
286;SDS011;127;48.770;9.212;2024-03-08T15:07:34;34.37;;;16.53;;
286;SDS011;127;48.770;9.212;2024-03-08T15:10:04;32.33;;;17.17;;
286;SDS011;127;48.770;9.212;2024-03-08T15:12:39;30.83;;;16.50;;
286;SDS011;127;48.770;9.212;2024-03-08T15:15:11;33.73;;;17.83;;
286;SDS011;127;48.770;9.212;2024-03-08T15:17:42;28.33;;;16.10;;
286;SDS011;127;48.770;9.212;2024-03-08T15:20:12;29.67;;;16.43;;
286;SDS011;127;48.770;9.212;2024-03-08T15:22:49;29.37;;;16.20;;
286;SDS011;127;48.770;9.212;2024-03-08T15:25:20;35.47;;;19.63;;
286;SDS011;127;48.770;9.212;2024-03-08T15:27:53;30.93;;;16.30;;
286;SDS011;127;48.770;9.212;2024-03-08T15:30:23;34.03;;;17.60;;
286;SDS011;127;48.770;9.212;2024-03-08T15:32:56;35.90;;;17.10;;
286;SDS011;127;48.770;9.212;2024-03-08T15:35:28;33.17;;;17.20;;
286;SDS011;127;48.770;9.212;2024-03-08T15:37:57;35.30;;;17.40;;
286;SDS011;127;48.770;9.212;2024-03-08T15:40:26;30.53;;;17.43;;
286;SDS011;127;48.770;9.212;2024-03-08T15:42:58;27.77;;;15.63;;